CAR weather

Caribou Municipal Airport
Caribou, Maine, United States

Public forecast

Using degrees Fahrenheit for public forecast. Weather courtesy of forecast.io.

Current aviation weather report (METAR) for Caribou Municipal Airport

Retrieved 2020/04/02 17:38 UTC (13 minutes ago):

KCAR 021738Z AUTO 05014G20KT 10SM -RA SCT025 OVC032 06/03 A2971

Aviation forecast (TAF) for Caribou Municipal Airport

Retrieved 2020/04/02 12:22 UTC (5 hours ago):

TAF KCAR 021120Z 0212/0312 36012KT 3SM -RA BR OVC012 WS020/10040KT FM021500 04014KT 6SM -RA OVC010 WS020/10040KT FM021800 05014G24KT 6SM -RA OVC014 WS020/09045KT FM030400 04013KT 6SM -DZ OVC020